createdAt,value
2018-05-09T00:01:26.800Z,1016.91
2018-05-09T00:02:27.376Z,1016.92
2018-05-09T00:03:27.953Z,1016.92
2018-05-09T00:04:28.532Z,1016.98
2018-05-09T00:06:13.677Z,1016.97
2018-05-09T00:07:14.259Z,1016.97
2018-05-09T00:08:14.835Z,1016.93
2018-05-09T00:09:15.416Z,1016.92
2018-05-09T00:11:00.562Z,1016.98
2018-05-09T00:12:01.205Z,1016.94
2018-05-09T00:13:01.778Z,1017.03
2018-05-09T00:14:02.402Z,1017.09
2018-05-09T00:15:47.505Z,1016.92
2018-05-09T00:16:48.087Z,1017.02
2018-05-09T00:17:48.666Z,1017.01
2018-05-09T00:18:49.250Z,1016.91
2018-05-09T00:20:34.440Z,1016.99
2018-05-09T00:21:35.029Z,1016.95
2018-05-09T00:22:35.608Z,1016.91
2018-05-09T00:23:36.185Z,1016.88
2018-05-09T00:25:21.284Z,1016.90
2018-05-09T00:26:21.961Z,1016.95
2018-05-09T00:27:22.592Z,1016.89
2018-05-09T00:28:23.172Z,1016.99
2018-05-09T00:30:08.270Z,1017.06
2018-05-09T00:31:08.852Z,1016.96
2018-05-09T00:32:09.482Z,1017.03
2018-05-09T00:33:10.063Z,1016.94
2018-05-09T00:34:55.162Z,1016.95
2018-05-09T00:35:55.747Z,1016.94
2018-05-09T00:36:56.325Z,1016.90
2018-05-09T00:37:56.905Z,1016.97
2018-05-09T00:39:42.005Z,1016.88
2018-05-09T00:40:42.589Z,1016.96
2018-05-09T00:41:43.247Z,1016.92
2018-05-09T00:42:43.749Z,1016.96
2018-05-09T00:44:28.894Z,1016.84
2018-05-09T00:45:29.526Z,1016.92
2018-05-09T00:46:30.104Z,1016.93
2018-05-09T00:47:30.683Z,1016.88
2018-05-09T00:49:15.781Z,1016.90
2018-05-09T00:50:16.409Z,1016.84
2018-05-09T00:51:16.940Z,1016.92
2018-05-09T00:52:17.520Z,1016.98
2018-05-09T00:54:02.612Z,1016.88
2018-05-09T00:55:03.242Z,1016.86
2018-05-09T00:56:03.820Z,1016.87
2018-05-09T00:57:04.398Z,1016.78
2018-05-09T00:58:49.492Z,1016.86
2018-05-09T00:59:50.071Z,1016.91
2018-05-09T01:00:50.649Z,1016.92
2018-05-09T01:01:51.234Z,1016.79
2018-05-09T01:03:36.322Z,1016.78
2018-05-09T01:04:36.902Z,1016.81
2018-05-09T01:05:37.531Z,1016.78
2018-05-09T01:06:38.158Z,1016.89
2018-05-09T01:08:23.253Z,1016.76
2018-05-09T01:09:23.835Z,1016.77
2018-05-09T01:10:24.455Z,1016.74
2018-05-09T01:11:25.033Z,1016.74
2018-05-09T01:13:10.126Z,1016.71
2018-05-09T01:14:10.707Z,1016.70
2018-05-09T01:15:11.293Z,1016.71
2018-05-09T01:16:11.912Z,1016.64
2018-05-09T01:17:57.048Z,1016.66
2018-05-09T01:18:57.629Z,1016.62
2018-05-09T01:19:58.207Z,1016.64
2018-05-09T01:20:58.787Z,1016.55
2018-05-09T01:22:43.879Z,1016.62
2018-05-09T01:23:44.462Z,1016.62
2018-05-09T01:24:45.092Z,1016.59
2018-05-09T01:25:45.666Z,1016.65
2018-05-09T01:27:30.759Z,1016.71
2018-05-09T01:28:31.339Z,1016.68
2018-05-09T01:29:31.916Z,1016.72
2018-05-09T01:30:32.500Z,1016.65
2018-05-09T01:32:17.589Z,1016.63
2018-05-09T01:33:18.219Z,1016.70
2018-05-09T01:34:18.796Z,1016.68
2018-05-09T01:35:19.374Z,1016.68
2018-05-09T01:37:04.467Z,1016.70
2018-05-09T01:38:05.047Z,1016.72
2018-05-09T01:39:05.625Z,1016.76
2018-05-09T01:40:06.204Z,1016.68
2018-05-09T01:41:51.296Z,1016.74
2018-05-09T01:42:51.876Z,1016.74
2018-05-09T01:43:52.453Z,1016.73
2018-05-09T01:44:53.083Z,1016.70
2018-05-09T01:46:38.177Z,1016.62
2018-05-09T01:47:38.812Z,1016.73
2018-05-09T01:48:39.435Z,1016.69
2018-05-09T01:49:40.013Z,1016.68
2018-05-09T01:51:25.159Z,1016.63
2018-05-09T01:52:25.745Z,1016.63
2018-05-09T01:53:26.322Z,1016.62
2018-05-09T01:54:26.944Z,1016.56
2018-05-09T01:56:12.041Z,1016.61
2018-05-09T01:57:12.633Z,1016.62
2018-05-09T01:58:13.255Z,1016.59
2018-05-09T01:59:13.835Z,1016.50
2018-05-09T02:00:58.985Z,1016.50
2018-05-09T02:01:59.567Z,1016.54
2018-05-09T02:03:00.149Z,1016.44
2018-05-09T02:04:00.730Z,1016.53
2018-05-09T02:05:45.822Z,1016.54
2018-05-09T02:06:46.404Z,1016.51
2018-05-09T02:07:46.985Z,1016.53
2018-05-09T02:08:47.610Z,1016.53
2018-05-09T02:10:32.754Z,1016.53
2018-05-09T02:11:33.333Z,1016.47
2018-05-09T02:12:33.911Z,1016.46
2018-05-09T02:13:34.487Z,1016.43
2018-05-09T02:15:19.579Z,1016.39
2018-05-09T02:16:20.161Z,1016.31
2018-05-09T02:17:20.737Z,1016.36
2018-05-09T02:18:21.315Z,1016.41
2018-05-09T02:20:06.408Z,1016.38
2018-05-09T02:21:06.989Z,1016.40
2018-05-09T02:22:07.566Z,1016.38
2018-05-09T02:23:08.146Z,1016.42
2018-05-09T02:24:53.337Z,1016.39
2018-05-09T02:25:53.916Z,1016.34
2018-05-09T02:26:54.493Z,1016.33
2018-05-09T02:27:55.120Z,1016.36
2018-05-09T02:29:40.216Z,1016.33
2018-05-09T02:30:40.796Z,1016.30
2018-05-09T02:31:41.373Z,1016.27
2018-05-09T02:32:41.953Z,1016.26
2018-05-09T02:34:27.044Z,1016.21
2018-05-09T02:35:27.625Z,1016.28
2018-05-09T02:36:28.203Z,1016.31
2018-05-09T02:37:28.786Z,1016.26
2018-05-09T02:39:13.874Z,1016.21
2018-05-09T02:40:14.455Z,1016.30
2018-05-09T02:41:15.033Z,1016.26
2018-05-09T02:42:15.613Z,1016.25
2018-05-09T02:44:00.754Z,1016.23
2018-05-09T02:45:01.334Z,1016.21
2018-05-09T02:46:01.961Z,1016.15
2018-05-09T02:47:02.540Z,1016.21
2018-05-09T02:48:47.683Z,1016.19
2018-05-09T02:49:48.318Z,1016.19
2018-05-09T02:50:48.841Z,1016.11
2018-05-09T02:51:49.421Z,1016.16
2018-05-09T02:53:34.519Z,1016.13
2018-05-09T02:54:35.092Z,1016.11
2018-05-09T02:55:35.670Z,1016.21
2018-05-09T02:56:36.259Z,1016.11
2018-05-09T02:58:21.389Z,1016.16
2018-05-09T02:59:22.009Z,1016.04
2018-05-09T03:00:22.634Z,1016.10
2018-05-09T03:01:23.208Z,1016.10
2018-05-09T03:03:08.351Z,1016.06
2018-05-09T03:04:08.931Z,1016.11
2018-05-09T03:05:09.549Z,1016.15
2018-05-09T03:06:10.180Z,1016.15
2018-05-09T03:07:55.320Z,1016.13
2018-05-09T03:08:55.963Z,1016.10
2018-05-09T03:09:56.476Z,1016.14
2018-05-09T03:10:57.053Z,1016.08
2018-05-09T03:12:42.147Z,1016.05
2018-05-09T03:13:42.770Z,1016.13
2018-05-09T03:14:43.348Z,1016.10
2018-05-09T03:15:43.927Z,1016.20
2018-05-09T03:17:29.019Z,1016.19
2018-05-09T03:18:29.599Z,1016.23
2018-05-09T03:19:30.176Z,1016.23
2018-05-09T03:20:30.843Z,1016.20
2018-05-09T03:22:15.877Z,1016.12
2018-05-09T03:23:16.477Z,1016.10
2018-05-09T03:24:17.106Z,1016.15
2018-05-09T03:25:17.683Z,1016.19
2018-05-09T03:27:02.828Z,1016.15
2018-05-09T03:28:03.408Z,1016.10
2018-05-09T03:29:03.986Z,1016.12
2018-05-09T03:30:04.563Z,1016.14
2018-05-09T03:31:49.657Z,1016.18
2018-05-09T03:32:50.243Z,1016.16
2018-05-09T03:33:50.813Z,1016.13
2018-05-09T03:34:51.394Z,1016.07
2018-05-09T03:36:36.536Z,1016.02
2018-05-09T03:37:37.116Z,1016.09
2018-05-09T03:38:37.694Z,1016.11
2018-05-09T03:39:38.273Z,1016.02
2018-05-09T03:41:23.365Z,1016.04
2018-05-09T03:42:23.996Z,1015.99
2018-05-09T03:43:24.622Z,1016.08
2018-05-09T03:44:25.200Z,1016.07
2018-05-09T03:46:10.345Z,1016.04
2018-05-09T03:47:10.924Z,1015.92
2018-05-09T03:48:11.502Z,1016.00
2018-05-09T03:49:12.078Z,1015.90
2018-05-09T03:50:57.172Z,1015.92
2018-05-09T03:51:57.752Z,1015.89
2018-05-09T03:52:58.329Z,1015.93
2018-05-09T03:53:58.909Z,1015.92
2018-05-09T03:55:44.001Z,1015.85
2018-05-09T03:56:44.581Z,1015.86
2018-05-09T03:57:45.159Z,1015.90
2018-05-09T03:58:45.738Z,1015.85
2018-05-09T04:00:30.880Z,1015.86
2018-05-09T04:01:31.511Z,1015.88
2018-05-09T04:02:32.090Z,1015.88
2018-05-09T04:03:32.668Z,1015.93
2018-05-09T04:05:17.813Z,1015.92
2018-05-09T04:06:18.394Z,1015.93
2018-05-09T04:07:19.013Z,1016.01
2018-05-09T04:08:19.591Z,1015.95
2018-05-09T04:10:04.684Z,1016.04
2018-05-09T04:11:05.265Z,1016.02
2018-05-09T04:12:05.843Z,1016.06
2018-05-09T04:13:06.457Z,1015.98
2018-05-09T04:14:51.603Z,1016.04
2018-05-09T04:15:52.094Z,1016.06
2018-05-09T04:16:52.673Z,1016.02
2018-05-09T04:17:53.252Z,1016.02
2018-05-09T04:19:38.394Z,1015.99
2018-05-09T04:20:39.039Z,1016.01
2018-05-09T04:21:39.550Z,1015.97
2018-05-09T04:22:40.128Z,1016.00
2018-05-09T04:24:25.321Z,1015.91
2018-05-09T04:25:25.901Z,1015.96
2018-05-09T04:26:26.479Z,1015.96
2018-05-09T04:27:27.055Z,1015.89
2018-05-09T04:29:12.148Z,1015.91
2018-05-09T04:30:12.729Z,1015.90
2018-05-09T04:31:13.307Z,1015.86
2018-05-09T04:32:13.885Z,1015.86
2018-05-09T04:33:58.978Z,1015.83
2018-05-09T04:34:59.680Z,1015.89
2018-05-09T04:36:00.186Z,1015.78
2018-05-09T04:37:00.764Z,1015.84
2018-05-09T04:38:45.857Z,1015.85
2018-05-09T04:39:46.437Z,1015.87
2018-05-09T04:40:47.015Z,1015.87
2018-05-09T04:41:47.594Z,1015.88
2018-05-09T04:43:32.736Z,1015.87
2018-05-09T04:44:33.318Z,1015.87
2018-05-09T04:45:33.944Z,1015.79
2018-05-09T04:46:34.521Z,1015.91
2018-05-09T04:48:19.616Z,1015.83
2018-05-09T04:49:20.197Z,1015.80
2018-05-09T04:50:20.824Z,1015.81
2018-05-09T04:51:21.401Z,1015.77
2018-05-09T04:53:06.494Z,1015.83
2018-05-09T04:54:07.074Z,1015.81
2018-05-09T04:55:07.701Z,1015.82
2018-05-09T04:56:08.280Z,1015.83
2018-05-09T04:57:53.372Z,1015.84
2018-05-09T04:58:54.003Z,1015.85
2018-05-09T04:59:54.581Z,1015.84
2018-05-09T05:00:55.159Z,1015.79
2018-05-09T05:02:40.252Z,1015.80
2018-05-09T05:03:40.831Z,1015.73
2018-05-09T05:04:41.411Z,1015.72
2018-05-09T05:05:41.988Z,1015.76
2018-05-09T05:07:27.081Z,1015.73
2018-05-09T05:08:27.663Z,1015.75
2018-05-09T05:09:28.239Z,1015.76
2018-05-09T05:10:28.819Z,1015.73
2018-05-09T05:12:13.961Z,1015.86
2018-05-09T05:13:14.593Z,1015.81
2018-05-09T05:14:15.170Z,1015.70
2018-05-09T05:15:15.803Z,1015.85
2018-05-09T05:17:00.892Z,1015.79
2018-05-09T05:18:01.472Z,1015.86
2018-05-09T05:19:02.049Z,1015.81
2018-05-09T05:20:02.629Z,1015.85
2018-05-09T05:21:47.722Z,1015.84
2018-05-09T05:22:48.303Z,1015.83
2018-05-09T05:23:48.883Z,1015.88
2018-05-09T05:24:49.459Z,1015.86
2018-05-09T05:26:34.553Z,1015.90
2018-05-09T05:27:35.176Z,1015.89
2018-05-09T05:28:35.753Z,1015.95
2018-05-09T05:29:36.382Z,1015.87
2018-05-09T05:31:21.575Z,1015.92
2018-05-09T05:32:22.155Z,1015.97
2018-05-09T05:33:22.736Z,1015.92
2018-05-09T05:34:23.310Z,1015.94
2018-05-09T05:36:08.402Z,1015.90
2018-05-09T05:37:08.983Z,1015.92
2018-05-09T05:38:09.610Z,1016.00
2018-05-09T05:39:10.290Z,1016.01
2018-05-09T05:40:55.380Z,1016.00
2018-05-09T05:41:55.961Z,1016.07
2018-05-09T05:42:56.540Z,1016.00
2018-05-09T05:43:57.118Z,1016.05
2018-05-09T05:45:42.210Z,1016.00
2018-05-09T05:46:42.836Z,1016.05
2018-05-09T05:47:43.461Z,1016.10
2018-05-09T05:48:44.039Z,1016.05
2018-05-09T05:50:29.131Z,1016.07
2018-05-09T05:51:29.761Z,1016.16
2018-05-09T05:52:30.342Z,1016.23
2018-05-09T05:53:30.959Z,1016.19
2018-05-09T05:55:16.104Z,1016.28
2018-05-09T05:56:16.682Z,1016.21
2018-05-09T05:57:17.310Z,1016.18
2018-05-09T05:58:17.888Z,1016.32
2018-05-09T06:00:02.982Z,1016.21
2018-05-09T06:01:03.562Z,1016.16
2018-05-09T06:02:04.140Z,1016.18
2018-05-09T06:03:04.720Z,1016.18
2018-05-09T06:04:49.811Z,1016.26
2018-05-09T06:05:50.393Z,1016.23
2018-05-09T06:06:51.020Z,1016.27
2018-05-09T06:07:51.687Z,1016.21
2018-05-09T06:09:36.690Z,1016.18
2018-05-09T06:10:37.320Z,1016.18
2018-05-09T06:11:37.948Z,1016.32
2018-05-09T06:12:38.527Z,1016.31
2018-05-09T06:14:23.621Z,1016.34
2018-05-09T06:15:24.204Z,1016.34
2018-05-09T06:16:24.780Z,1016.41
2018-05-09T06:17:25.359Z,1016.38
2018-05-09T06:19:10.458Z,1016.45
2018-05-09T06:20:11.032Z,1016.54
2018-05-09T06:21:11.608Z,1016.54
2018-05-09T06:22:12.188Z,1016.46
2018-05-09T06:23:57.354Z,1016.49
2018-05-09T06:24:57.889Z,1016.47
2018-05-09T06:25:58.439Z,1016.47
2018-05-09T06:26:59.019Z,1016.48
2018-05-09T06:28:44.211Z,1016.48
2018-05-09T06:29:44.788Z,1016.46
2018-05-09T06:30:45.367Z,1016.51
2018-05-09T06:31:45.943Z,1016.58
2018-05-09T06:33:31.036Z,1016.48
2018-05-09T06:34:31.616Z,1016.59
2018-05-09T06:35:32.243Z,1016.51
2018-05-09T06:36:32.820Z,1016.58
2018-05-09T06:38:17.914Z,1016.55
2018-05-09T06:39:18.502Z,1016.54
2018-05-09T06:40:19.115Z,1016.56
2018-05-09T06:41:19.694Z,1016.54
2018-05-09T06:43:04.786Z,1016.47
2018-05-09T06:44:05.367Z,1016.56
2018-05-09T06:45:05.994Z,1016.60
2018-05-09T06:46:06.570Z,1016.63
2018-05-09T06:47:51.714Z,1016.66
2018-05-09T06:48:52.296Z,1016.72
2018-05-09T06:49:52.979Z,1016.67
2018-05-09T06:50:53.495Z,1016.74
2018-05-09T06:52:38.593Z,1016.72
2018-05-09T06:53:39.227Z,1016.63
2018-05-09T06:54:39.810Z,1016.63
2018-05-09T06:55:40.390Z,1016.73
2018-05-09T06:57:25.536Z,1016.68
2018-05-09T06:58:26.119Z,1016.71
2018-05-09T06:59:26.700Z,1016.73
2018-05-09T07:00:27.280Z,1016.69
2018-05-09T07:02:12.479Z,1016.77
2018-05-09T07:03:13.111Z,1016.69
2018-05-09T07:04:13.691Z,1016.70
2018-05-09T07:05:14.322Z,1016.71
2018-05-09T07:06:59.421Z,1016.79
2018-05-09T07:08:00.002Z,1016.79
2018-05-09T07:09:00.581Z,1016.77
2018-05-09T07:10:01.163Z,1016.75
2018-05-09T07:11:46.261Z,1016.85
2018-05-09T07:12:46.845Z,1016.79
2018-05-09T07:13:47.425Z,1016.77
2018-05-09T07:14:48.011Z,1016.80
2018-05-09T07:16:33.105Z,1016.78
2018-05-09T07:17:33.689Z,1016.80
2018-05-09T07:18:34.269Z,1016.74
2018-05-09T07:19:34.900Z,1016.79
2018-05-09T07:21:19.999Z,1016.74
2018-05-09T07:22:20.634Z,1016.79
2018-05-09T07:23:21.218Z,1016.79
2018-05-09T07:24:21.800Z,1016.69
2018-05-09T07:26:06.946Z,1016.70
2018-05-09T07:27:07.530Z,1016.82
2018-05-09T07:28:08.113Z,1016.79
2018-05-09T07:29:08.693Z,1016.78
2018-05-09T07:30:53.790Z,1016.86
2018-05-09T07:31:54.373Z,1016.91
2018-05-09T07:32:54.955Z,1016.85
2018-05-09T07:33:55.537Z,1016.88
2018-05-09T07:35:40.637Z,1016.84
2018-05-09T07:36:41.221Z,1016.83
2018-05-09T07:37:41.853Z,1016.80
2018-05-09T07:38:42.436Z,1016.84
2018-05-09T07:40:27.583Z,1016.96
2018-05-09T07:41:28.168Z,1016.95
2018-05-09T07:42:28.749Z,1016.96
2018-05-09T07:43:29.333Z,1017.03
2018-05-09T07:45:14.481Z,1016.96
2018-05-09T07:46:15.064Z,1016.97
2018-05-09T07:47:15.647Z,1017.00
2018-05-09T07:48:16.230Z,1016.94
2018-05-09T07:50:01.329Z,1016.95
2018-05-09T07:51:01.912Z,1016.89
2018-05-09T07:52:02.493Z,1016.94
2018-05-09T07:53:03.078Z,1016.93
2018-05-09T07:54:48.175Z,1016.86
2018-05-09T07:55:48.810Z,1016.84
2018-05-09T07:56:49.397Z,1016.92
2018-05-09T07:57:50.029Z,1016.89
2018-05-09T07:59:35.128Z,1016.91
2018-05-09T08:00:35.712Z,1016.95
2018-05-09T08:01:36.297Z,1016.98
2018-05-09T08:02:36.877Z,1017.06
2018-05-09T08:04:22.026Z,1017.02
2018-05-09T08:05:22.609Z,1017.07
2018-05-09T08:06:23.193Z,1017.03
2018-05-09T08:07:23.775Z,1017.04
2018-05-09T08:09:08.873Z,1017.10
2018-05-09T08:10:09.457Z,1017.05
2018-05-09T08:11:10.039Z,1017.14
2018-05-09T08:12:10.623Z,1017.14
2018-05-09T08:13:55.773Z,1017.13
2018-05-09T08:14:56.406Z,1017.11
2018-05-09T08:15:56.993Z,1017.11
2018-05-09T08:16:57.572Z,1017.17
2018-05-09T08:18:42.670Z,1017.14
2018-05-09T08:19:43.255Z,1017.19
2018-05-09T08:20:43.836Z,1017.19
2018-05-09T08:21:44.418Z,1017.30
2018-05-09T08:23:29.518Z,1017.29
2018-05-09T08:24:30.153Z,1017.21
2018-05-09T08:25:30.736Z,1017.24
2018-05-09T08:26:31.319Z,1017.23
2018-05-09T08:28:16.417Z,1017.14
2018-05-09T08:29:17.003Z,1017.25
2018-05-09T08:30:17.635Z,1017.24
2018-05-09T08:31:18.211Z,1017.25
2018-05-09T08:33:03.359Z,1017.29
2018-05-09T08:34:03.942Z,1017.36
2018-05-09T08:35:04.529Z,1017.35
2018-05-09T08:36:05.112Z,1017.32
2018-05-09T08:37:50.257Z,1017.32
2018-05-09T08:38:50.839Z,1017.36
2018-05-09T08:39:51.425Z,1017.33
2018-05-09T08:40:52.055Z,1017.31
2018-05-09T08:42:37.153Z,1017.29
2018-05-09T08:43:37.778Z,1017.27
2018-05-09T08:44:38.320Z,1017.27
2018-05-09T08:45:38.904Z,1017.23
2018-05-09T08:47:24.019Z,1017.35
2018-05-09T08:48:24.604Z,1017.31
2018-05-09T08:49:25.326Z,1017.35
2018-05-09T08:50:25.773Z,1017.31
2018-05-09T08:52:10.912Z,1017.40
2018-05-09T08:53:11.497Z,1017.34
2018-05-09T08:54:12.080Z,1017.38
2018-05-09T08:55:12.663Z,1017.35
2018-05-09T08:56:57.815Z,1017.44
2018-05-09T08:57:58.445Z,1017.42
2018-05-09T08:58:59.073Z,1017.46
2018-05-09T08:59:59.655Z,1017.47
2018-05-09T09:01:44.752Z,1017.54
2018-05-09T09:02:45.391Z,1017.53
2018-05-09T09:03:45.970Z,1017.60
2018-05-09T09:04:46.553Z,1017.60
2018-05-09T09:10:33.775Z,1017.49
2018-05-09T09:11:34.392Z,1017.53
2018-05-09T09:12:34.970Z,1017.54
2018-05-09T09:13:35.552Z,1017.47
2018-05-09T09:15:20.525Z,1017.52
2018-05-09T09:16:21.047Z,1017.53
2018-05-09T09:17:21.624Z,1017.50
2018-05-09T09:18:22.203Z,1017.55
2018-05-09T09:20:07.129Z,1017.55
2018-05-09T09:21:07.706Z,1017.56
2018-05-09T09:22:08.337Z,1017.67
2018-05-09T09:23:08.955Z,1017.62
2018-05-09T09:24:53.880Z,1017.65
2018-05-09T09:25:54.456Z,1017.70
2018-05-09T09:26:55.082Z,1017.69
2018-05-09T09:27:55.661Z,1017.69
2018-05-09T09:29:40.639Z,1017.68
2018-05-09T09:30:41.218Z,1017.71
2018-05-09T09:31:41.795Z,1017.80
2018-05-09T09:32:42.375Z,1017.76
2018-05-09T09:34:27.301Z,1017.78
2018-05-09T09:35:27.880Z,1017.79
2018-05-09T09:36:28.458Z,1017.80
2018-05-09T09:37:29.037Z,1017.84
2018-05-09T09:39:13.964Z,1017.85
2018-05-09T09:40:14.543Z,1017.82
2018-05-09T09:41:15.170Z,1017.92
2018-05-09T09:42:15.754Z,1017.84
2018-05-09T09:44:00.722Z,1017.94
2018-05-09T09:45:01.297Z,1017.94
2018-05-09T09:46:01.874Z,1017.84
2018-05-09T09:47:02.448Z,1017.86
2018-05-09T09:48:47.375Z,1017.88
2018-05-09T09:49:47.950Z,1017.90
2018-05-09T09:50:48.526Z,1017.97
2018-05-09T09:51:49.142Z,1017.95
2018-05-09T09:53:34.067Z,1017.90
2018-05-09T09:54:34.642Z,1017.80
2018-05-09T09:55:35.218Z,1017.86
2018-05-09T09:56:35.797Z,1017.78
2018-05-09T09:58:20.769Z,1017.89
2018-05-09T09:59:21.354Z,1017.90
2018-05-09T10:00:21.977Z,1017.87
2018-05-09T10:01:22.603Z,1017.88
2018-05-09T10:03:07.567Z,1017.93
2018-05-09T10:04:08.143Z,1017.96
2018-05-09T10:05:08.720Z,1017.92
2018-05-09T10:06:09.293Z,1017.93
2018-05-09T10:07:54.227Z,1017.91
2018-05-09T10:08:54.837Z,1017.98
2018-05-09T10:09:55.413Z,1017.87
2018-05-09T10:10:55.987Z,1017.92
2018-05-09T10:12:40.913Z,1017.96
2018-05-09T10:13:41.487Z,1017.91
2018-05-09T10:14:42.064Z,1018.01
2018-05-09T10:15:42.724Z,1018.02
2018-05-09T10:17:27.613Z,1017.95
2018-05-09T10:18:28.240Z,1017.97
2018-05-09T10:19:28.815Z,1017.96
2018-05-09T10:20:29.393Z,1018.01
2018-05-09T10:22:14.379Z,1018.01
2018-05-09T10:23:14.955Z,1017.99
2018-05-09T10:24:15.521Z,1018.07
2018-05-09T10:25:16.091Z,1017.92
2018-05-09T10:27:01.067Z,1017.98
2018-05-09T10:28:01.649Z,1018.01
2018-05-09T10:29:02.221Z,1018.01
2018-05-09T10:30:02.799Z,1018.10
2018-05-09T10:31:47.766Z,1018.10
2018-05-09T10:32:48.341Z,1018.07
2018-05-09T10:33:48.918Z,1018.16
2018-05-09T10:34:49.647Z,1018.15
2018-05-09T10:36:34.614Z,1018.15
2018-05-09T10:37:35.242Z,1018.19
2018-05-09T10:38:35.818Z,1018.18
2018-05-09T10:39:36.393Z,1018.16
2018-05-09T10:41:21.319Z,1018.10
2018-05-09T10:42:21.893Z,1018.22
2018-05-09T10:43:22.469Z,1018.12
2018-05-09T10:44:23.043Z,1018.19
2018-05-09T10:46:08.012Z,1018.15
2018-05-09T10:47:08.594Z,1018.23
2018-05-09T10:48:09.170Z,1018.18
2018-05-09T10:49:09.746Z,1018.13
2018-05-09T10:50:54.720Z,1018.20
2018-05-09T10:51:55.300Z,1018.12
2018-05-09T10:52:55.872Z,1018.14
2018-05-09T10:53:56.450Z,1018.23
2018-05-09T10:55:41.421Z,1018.13
2018-05-09T10:56:42.001Z,1018.16
2018-05-09T10:57:42.665Z,1018.26
2018-05-09T10:58:43.239Z,1018.23
2018-05-09T11:00:28.164Z,1018.22
2018-05-09T11:01:28.739Z,1018.23
2018-05-09T11:02:29.366Z,1018.19
2018-05-09T11:03:29.894Z,1018.21
2018-05-09T11:05:14.859Z,1018.21
2018-05-09T11:06:15.436Z,1018.22
2018-05-09T11:07:16.011Z,1018.24
2018-05-09T11:08:16.588Z,1018.22
2018-05-09T11:10:01.515Z,1018.24
2018-05-09T11:11:02.146Z,1018.22
2018-05-09T11:12:02.816Z,1018.26
2018-05-09T11:13:03.442Z,1018.29
2018-05-09T11:14:48.366Z,1018.29
2018-05-09T11:15:48.942Z,1018.37
2018-05-09T11:16:49.518Z,1018.29
2018-05-09T11:17:50.095Z,1018.31
2018-05-09T11:19:35.173Z,1018.33
2018-05-09T11:20:35.747Z,1018.34
2018-05-09T11:21:36.323Z,1018.38
2018-05-09T11:22:36.899Z,1018.42
2018-05-09T11:24:21.885Z,1018.33
2018-05-09T11:25:22.399Z,1018.35
2018-05-09T11:26:22.976Z,1018.40
2018-05-09T11:27:23.553Z,1018.32
2018-05-09T11:29:08.521Z,1018.37
2018-05-09T11:30:09.298Z,1018.47
2018-05-09T11:31:09.926Z,1018.40
2018-05-09T11:32:10.603Z,1018.38
2018-05-09T11:33:55.530Z,1018.45
2018-05-09T11:34:56.107Z,1018.40
2018-05-09T11:35:56.680Z,1018.48
2018-05-09T11:36:57.357Z,1018.44
2018-05-09T11:38:42.284Z,1018.50
2018-05-09T11:39:42.864Z,1018.46
2018-05-09T11:40:43.436Z,1018.55
2018-05-09T11:41:44.013Z,1018.49
2018-05-09T11:43:28.948Z,1018.45
2018-05-09T11:44:29.518Z,1018.44
2018-05-09T11:45:30.097Z,1018.45
2018-05-09T11:46:30.673Z,1018.56
2018-05-09T11:48:15.597Z,1018.54
2018-05-09T11:49:16.174Z,1018.47
2018-05-09T11:50:16.800Z,1018.47
2018-05-09T11:51:17.428Z,1018.47
2018-05-09T11:53:02.415Z,1018.52
2018-05-09T11:54:02.967Z,1018.51
2018-05-09T11:55:03.546Z,1018.49
2018-05-09T11:56:04.125Z,1018.46
2018-05-09T11:57:49.101Z,1018.45
2018-05-09T11:58:49.685Z,1018.43
2018-05-09T11:59:50.262Z,1018.45
2018-05-09T12:00:50.841Z,1018.37
2018-05-09T12:02:35.795Z,1018.43
2018-05-09T12:03:36.395Z,1018.55
2018-05-09T12:04:36.973Z,1018.54
2018-05-09T12:05:37.553Z,1018.45
2018-05-09T12:07:22.481Z,1018.49
2018-05-09T12:08:23.064Z,1018.46
2018-05-09T12:09:23.737Z,1018.52
2018-05-09T12:10:24.399Z,1018.48
2018-05-09T12:12:09.289Z,1018.52
2018-05-09T12:13:09.869Z,1018.46
2018-05-09T12:14:10.446Z,1018.53
2018-05-09T12:15:11.023Z,1018.47
2018-05-09T12:16:55.999Z,1018.54
2018-05-09T12:17:56.579Z,1018.48
2018-05-09T12:18:57.156Z,1018.51
2018-05-09T12:19:57.734Z,1018.55
2018-05-09T12:21:42.703Z,1018.55
2018-05-09T12:22:43.280Z,1018.49
2018-05-09T12:23:43.860Z,1018.58
2018-05-09T12:24:44.434Z,1018.52
2018-05-09T12:26:29.361Z,1018.52
2018-05-09T12:27:29.937Z,1018.57
2018-05-09T12:28:30.563Z,1018.59
2018-05-09T12:29:31.139Z,1018.65
2018-05-09T12:31:16.065Z,1018.63
2018-05-09T12:32:16.642Z,1018.64
2018-05-09T12:33:17.268Z,1018.63
2018-05-09T12:34:17.849Z,1018.68
2018-05-09T12:36:02.818Z,1018.57
2018-05-09T12:37:03.448Z,1018.58
2018-05-09T12:38:04.029Z,1018.68
2018-05-09T12:39:04.603Z,1018.62
2018-05-09T12:40:49.530Z,1018.59
2018-05-09T12:41:50.107Z,1018.57
2018-05-09T12:42:50.733Z,1018.55
2018-05-09T12:43:51.313Z,1018.55
2018-05-09T12:45:36.243Z,1018.56
2018-05-09T12:46:36.865Z,1018.57
2018-05-09T12:47:37.444Z,1018.61
2018-05-09T12:48:38.169Z,1018.54
2018-05-09T12:50:23.046Z,1018.58
2018-05-09T12:51:23.627Z,1018.57
2018-05-09T12:52:24.205Z,1018.61
2018-05-09T12:53:24.786Z,1018.60
2018-05-09T12:55:09.759Z,1018.66
2018-05-09T12:56:10.380Z,1018.62
2018-05-09T12:57:10.957Z,1018.61
2018-05-09T12:58:11.537Z,1018.62
2018-05-09T12:59:56.464Z,1018.61
2018-05-09T13:00:57.091Z,1018.58
2018-05-09T13:01:57.668Z,1018.61
2018-05-09T13:02:58.247Z,1018.60
2018-05-09T13:04:43.173Z,1018.58
2018-05-09T13:05:43.753Z,1018.67
2018-05-09T13:06:44.326Z,1018.57
2018-05-09T13:07:44.904Z,1018.62
2018-05-09T13:09:29.884Z,1018.60
2018-05-09T13:10:30.469Z,1018.60
2018-05-09T13:11:31.044Z,1018.48
2018-05-09T13:12:31.673Z,1018.55
2018-05-09T13:14:16.597Z,1018.63
2018-05-09T13:15:17.229Z,1018.58
2018-05-09T13:16:17.841Z,1018.54
2018-05-09T13:17:18.458Z,1018.53
2018-05-09T13:19:03.433Z,1018.65
2018-05-09T13:20:04.011Z,1018.69
2018-05-09T13:21:04.587Z,1018.64
2018-05-09T13:22:05.163Z,1018.57
2018-05-09T13:23:50.138Z,1018.63
2018-05-09T13:24:50.714Z,1018.55
2018-05-09T13:25:51.338Z,1018.57
2018-05-09T13:26:53.079Z,1018.62
2018-05-09T13:28:38.055Z,1018.63
2018-05-09T13:29:38.632Z,1018.62
2018-05-09T13:30:39.208Z,1018.73
2018-05-09T13:31:39.791Z,1018.65
2018-05-09T13:33:24.715Z,1018.70
2018-05-09T13:34:25.339Z,1018.70
2018-05-09T13:35:25.917Z,1018.64
2018-05-09T13:36:26.544Z,1018.75
2018-05-09T13:38:11.469Z,1018.64
2018-05-09T13:39:12.045Z,1018.70
2018-05-09T13:40:12.626Z,1018.74
2018-05-09T13:41:13.197Z,1018.79
2018-05-09T13:42:58.124Z,1018.78
2018-05-09T13:43:58.698Z,1018.78
2018-05-09T13:44:59.274Z,1018.74
2018-05-09T13:45:59.975Z,1018.74
2018-05-09T13:47:44.823Z,1018.77
2018-05-09T13:48:45.398Z,1018.76
2018-05-09T13:49:46.024Z,1018.76
2018-05-09T13:50:46.600Z,1018.76
2018-05-09T13:52:31.525Z,1018.70
2018-05-09T13:53:32.100Z,1018.71
2018-05-09T13:54:32.733Z,1018.76
2018-05-09T13:55:33.302Z,1018.73
2018-05-09T13:57:18.228Z,1018.67
2018-05-09T13:58:18.846Z,1018.78
2018-05-09T13:59:19.423Z,1018.76
2018-05-09T14:00:19.998Z,1018.73
2018-05-09T14:02:04.925Z,1018.77
2018-05-09T14:03:05.501Z,1018.83
2018-05-09T14:04:06.077Z,1018.65
2018-05-09T14:05:06.652Z,1018.78
2018-05-09T14:06:51.578Z,1018.82
2018-05-09T14:07:52.202Z,1018.70
2018-05-09T14:08:52.778Z,1018.76
2018-05-09T14:09:53.419Z,1018.79
2018-05-09T14:11:38.531Z,1018.73
2018-05-09T14:12:39.106Z,1018.71
2018-05-09T14:13:39.684Z,1018.72
2018-05-09T14:14:40.260Z,1018.71
2018-05-09T14:16:25.205Z,1018.80
2018-05-09T14:17:25.764Z,1018.74
2018-05-09T14:18:26.340Z,1018.78
2018-05-09T14:19:26.917Z,1018.79
2018-05-09T14:21:11.846Z,1018.75
2018-05-09T14:22:12.425Z,1018.77
2018-05-09T14:23:13.001Z,1018.77
2018-05-09T14:24:13.727Z,1018.84
2018-05-09T14:25:58.654Z,1018.82
2018-05-09T14:26:59.271Z,1018.88
2018-05-09T14:27:59.848Z,1018.88
2018-05-09T14:29:00.422Z,1018.78
2018-05-09T14:30:45.348Z,1018.86
2018-05-09T14:31:45.974Z,1018.86